createdAt,value
2023-04-15T00:02:07.826Z,53.30
2023-04-15T00:04:37.723Z,53.17
2023-04-15T00:07:05.536Z,55.06
2023-04-15T00:09:33.196Z,57.05
2023-04-15T00:12:00.861Z,58.21
2023-04-15T00:14:28.625Z,58.69
2023-04-15T00:16:57.470Z,59.71
2023-04-15T00:19:25.685Z,60.11
2023-04-15T00:21:54.065Z,65.81
2023-04-15T00:24:21.832Z,62.00
2023-04-15T00:26:49.482Z,53.92
2023-04-15T00:29:17.160Z,52.55
2023-04-15T00:31:45.019Z,54.42
2023-04-15T00:34:13.192Z,55.96
2023-04-15T00:36:40.854Z,57.43
2023-04-15T00:39:08.516Z,57.84
2023-04-15T00:41:39.456Z,58.20
2023-04-15T00:44:07.218Z,59.30
2023-04-15T00:46:35.295Z,60.95
2023-04-15T00:49:02.964Z,65.94
2023-04-15T00:51:31.740Z,61.69
2023-04-15T00:53:59.403Z,53.02
2023-04-15T00:56:27.576Z,52.52
2023-04-15T00:58:55.443Z,54.32
2023-04-15T01:01:23.237Z,55.99
2023-04-15T01:03:51.480Z,58.71
2023-04-15T01:06:19.370Z,59.07
2023-04-15T01:08:47.113Z,59.66
2023-04-15T01:11:14.782Z,60.44
2023-04-15T01:13:42.846Z,61.78
2023-04-15T01:16:10.644Z,67.12
2023-04-15T01:18:38.890Z,60.99
2023-04-15T01:21:07.268Z,52.75
2023-04-15T01:23:34.926Z,52.63
2023-04-15T01:26:02.900Z,54.64
2023-04-15T01:28:30.661Z,55.73
2023-04-15T01:30:58.941Z,56.80
2023-04-15T01:33:26.702Z,57.98
2023-04-15T01:35:54.673Z,58.70
2023-04-15T01:38:22.643Z,59.43
2023-04-15T01:40:50.402Z,59.55
2023-04-15T01:43:18.067Z,60.28
2023-04-15T01:45:46.273Z,60.79
2023-04-15T01:48:14.007Z,65.14
2023-04-15T01:50:42.078Z,61.67
2023-04-15T01:53:09.947Z,52.06
2023-04-15T01:55:37.811Z,51.44
2023-04-15T01:58:05.674Z,53.25
2023-04-15T02:00:33.438Z,55.63
2023-04-15T02:03:01.177Z,56.24
2023-04-15T02:05:29.077Z,56.92
2023-04-15T02:07:56.842Z,58.05
2023-04-15T02:10:24.509Z,59.05
2023-04-15T02:12:52.265Z,59.81
2023-04-15T02:15:26.686Z,64.60
2023-04-15T02:17:55.689Z,62.74
2023-04-15T02:20:23.450Z,53.13
2023-04-15T02:22:51.512Z,52.23
2023-04-15T02:25:19.276Z,54.21
2023-04-15T02:27:46.949Z,55.87
2023-04-15T02:30:14.709Z,57.51
2023-04-15T02:32:45.549Z,58.34
2023-04-15T02:35:13.583Z,59.35
2023-04-15T02:37:44.036Z,60.01
2023-04-15T02:40:14.680Z,60.44
2023-04-15T02:42:42.850Z,61.11
2023-04-15T02:45:10.610Z,66.40
2023-04-15T02:47:40.542Z,61.94
2023-04-15T02:50:08.188Z,53.17
2023-04-15T02:52:35.945Z,52.50
2023-04-15T02:55:04.642Z,54.72
2023-04-15T02:57:32.403Z,56.32
2023-04-15T03:00:00.056Z,58.05
2023-04-15T03:02:28.108Z,58.34
2023-04-15T03:04:56.095Z,58.73
2023-04-15T03:07:23.756Z,59.62
2023-04-15T03:09:51.826Z,60.06
2023-04-15T03:12:19.494Z,60.79
2023-04-15T03:14:47.252Z,66.13
2023-04-15T03:17:15.123Z,61.87
2023-04-15T03:19:42.789Z,52.96
2023-04-15T03:22:10.549Z,52.58
2023-04-15T03:24:38.221Z,54.36
2023-04-15T03:27:08.221Z,56.17
2023-04-15T03:29:35.885Z,56.96
2023-04-15T03:32:03.551Z,57.84
2023-04-15T03:34:31.725Z,58.77
2023-04-15T03:36:59.415Z,59.36
2023-04-15T03:39:27.459Z,60.59
2023-04-15T03:41:55.117Z,60.84
2023-04-15T03:44:22.777Z,66.37
2023-04-15T03:46:50.566Z,61.76
2023-04-15T03:49:19.637Z,52.67
2023-04-15T03:51:47.300Z,51.98
2023-04-15T03:54:15.473Z,53.05
2023-04-15T03:56:43.137Z,55.12
2023-04-15T03:59:11.619Z,56.15
2023-04-15T04:01:39.422Z,57.52
2023-04-15T04:04:07.718Z,58.76
2023-04-15T04:06:35.626Z,58.86
2023-04-15T04:09:03.534Z,59.63
2023-04-15T04:11:31.973Z,60.53
2023-04-15T04:13:59.637Z,61.08
2023-04-15T04:16:27.480Z,66.36
2023-04-15T04:18:55.476Z,62.03
2023-04-15T04:21:23.239Z,52.36
2023-04-15T04:23:50.895Z,52.00
2023-04-15T04:26:18.766Z,53.93
2023-04-15T04:28:46.428Z,55.82
2023-04-15T04:31:14.092Z,57.13
2023-04-15T04:33:41.853Z,57.82
2023-04-15T04:36:09.612Z,58.80
2023-04-15T04:38:37.479Z,59.12
2023-04-15T04:41:05.142Z,59.73
2023-04-15T04:43:32.813Z,60.64
2023-04-15T04:46:00.793Z,61.10
2023-04-15T04:48:28.534Z,66.22
2023-04-15T04:50:56.294Z,61.93
2023-04-15T04:53:24.065Z,52.52
2023-04-15T04:55:51.826Z,52.05
2023-04-15T04:58:19.592Z,54.24
2023-04-15T05:00:47.381Z,55.58
2023-04-15T05:03:15.286Z,56.39
2023-04-15T05:05:43.741Z,57.29
2023-04-15T05:08:11.465Z,57.88
2023-04-15T05:10:39.241Z,58.90
2023-04-15T05:13:06.894Z,60.53
2023-04-15T05:15:37.152Z,60.57
2023-04-15T05:18:04.951Z,60.68
2023-04-15T05:20:32.747Z,66.26
2023-04-15T05:23:00.409Z,60.93
2023-04-15T05:25:28.070Z,51.72
2023-04-15T05:27:56.138Z,51.41
2023-04-15T05:30:23.803Z,52.78
2023-04-15T05:32:51.454Z,54.27
2023-04-15T05:35:19.338Z,55.71
2023-04-15T05:37:47.490Z,57.03
2023-04-15T05:40:15.752Z,57.35
2023-04-15T05:42:43.443Z,57.56
2023-04-15T05:45:11.105Z,58.36
2023-04-15T05:47:38.798Z,58.77
2023-04-15T05:50:06.838Z,59.33
2023-04-15T05:52:34.500Z,59.76
2023-04-15T05:55:02.263Z,60.96
2023-04-15T05:57:29.926Z,60.89
2023-04-15T05:59:58.106Z,65.93
2023-04-15T06:02:26.868Z,61.50
2023-04-15T06:04:54.825Z,51.63
2023-04-15T06:07:22.638Z,51.16
2023-04-15T06:09:50.594Z,52.49
2023-04-15T06:12:18.252Z,54.37
2023-04-15T06:14:45.914Z,56.09
2023-04-15T06:17:15.211Z,57.29
2023-04-15T06:19:42.874Z,57.64
2023-04-15T06:22:10.741Z,58.81
2023-04-15T06:24:38.508Z,58.38
2023-04-15T06:27:06.270Z,58.03
2023-04-15T06:29:33.903Z,59.16
2023-04-15T06:32:01.802Z,60.04
2023-04-15T06:34:29.557Z,63.43
2023-04-15T06:36:57.731Z,62.13
2023-04-15T06:39:25.396Z,50.69
2023-04-15T06:41:53.266Z,49.06
2023-04-15T06:44:21.024Z,50.77
2023-04-15T06:46:48.688Z,52.54
2023-04-15T06:49:16.654Z,53.76
2023-04-15T06:51:44.421Z,54.29
2023-04-15T06:54:12.299Z,54.90
2023-04-15T06:56:40.052Z,55.48
2023-04-15T06:59:08.837Z,56.43
2023-04-15T07:01:36.619Z,57.33
2023-04-15T07:04:04.633Z,57.80
2023-04-15T07:06:32.949Z,58.75
2023-04-15T07:09:01.910Z,59.44
2023-04-15T07:11:29.806Z,59.86
2023-04-15T07:13:57.480Z,59.59
2023-04-15T07:16:26.198Z,59.47
2023-04-15T07:18:56.169Z,60.95
2023-04-15T07:21:24.144Z,61.03
2023-04-15T07:23:52.212Z,61.82
2023-04-15T07:26:19.876Z,66.17
2023-04-15T07:28:47.646Z,56.06
2023-04-15T07:31:16.735Z,50.55
2023-04-15T07:33:44.497Z,51.60
2023-04-15T07:36:12.265Z,52.85
2023-04-15T07:38:39.924Z,55.90
2023-04-15T07:41:07.798Z,55.41
2023-04-15T07:43:35.763Z,55.35
2023-04-15T07:46:03.531Z,55.25
2023-04-15T07:48:31.700Z,55.93
2023-04-15T07:50:59.362Z,58.31
2023-04-15T07:53:27.133Z,58.29
2023-04-15T07:55:54.787Z,58.03
2023-04-15T07:58:22.454Z,59.02
2023-04-15T08:00:50.621Z,58.98
2023-04-15T08:03:18.724Z,59.04
2023-04-15T08:05:47.491Z,59.37
2023-04-15T08:08:16.927Z,59.39
2023-04-15T08:10:45.777Z,60.57
2023-04-15T08:13:13.442Z,58.70
2023-04-15T08:15:41.591Z,58.55
2023-04-15T08:18:09.681Z,59.54
2023-04-15T08:20:38.372Z,59.87
2023-04-15T08:23:06.440Z,59.03
2023-04-15T08:25:34.117Z,59.00
2023-04-15T08:28:03.706Z,59.43
2023-04-15T08:30:31.677Z,59.80
2023-04-15T08:32:59.385Z,58.40
2023-04-15T08:35:27.724Z,59.12
2023-04-15T08:37:55.687Z,58.95
2023-04-15T08:40:23.352Z,59.23
2023-04-15T08:42:51.009Z,59.04
2023-04-15T08:45:21.158Z,58.51
2023-04-15T08:47:49.017Z,58.90
2023-04-15T08:50:16.766Z,57.69
2023-04-15T08:52:44.948Z,58.60
2023-04-15T08:55:13.107Z,58.29
2023-04-15T08:57:40.975Z,57.30
2023-04-15T09:00:09.555Z,57.72
2023-04-15T09:02:37.757Z,57.25
2023-04-15T09:05:07.134Z,57.50
2023-04-15T09:07:36.025Z,57.40
2023-04-15T09:10:03.804Z,57.81
2023-04-15T09:12:31.868Z,57.66
2023-04-15T09:14:59.622Z,58.20
2023-04-15T09:17:28.023Z,57.78
2023-04-15T09:19:55.778Z,57.31
2023-04-15T09:22:23.429Z,56.81
2023-04-15T09:24:51.192Z,56.20
2023-04-15T09:27:19.060Z,57.52
2023-04-15T09:29:47.132Z,57.09
2023-04-15T09:32:14.889Z,56.63
2023-04-15T09:34:42.660Z,56.86
2023-04-15T09:37:11.381Z,55.82
2023-04-15T09:39:39.212Z,56.07
2023-04-15T09:42:07.322Z,56.74
2023-04-15T09:44:35.160Z,56.36
2023-04-15T09:47:02.910Z,55.94
2023-04-15T09:49:30.609Z,55.88
2023-04-15T09:52:04.923Z,56.65
2023-04-15T09:54:33.371Z,56.98
2023-04-15T09:57:01.954Z,57.18
2023-04-15T09:59:29.617Z,56.22
2023-04-15T10:01:57.339Z,56.17
2023-04-15T10:04:25.345Z,56.45
2023-04-15T10:06:53.732Z,57.27
2023-04-15T10:09:21.494Z,56.64
2023-04-15T10:11:49.674Z,54.85
2023-04-15T10:14:17.840Z,55.88
2023-04-15T10:16:46.325Z,55.19
2023-04-15T10:19:13.990Z,55.87
2023-04-15T10:21:41.756Z,55.24
2023-04-15T10:24:09.418Z,54.05
2023-04-15T10:26:37.072Z,53.68
2023-04-15T10:29:05.143Z,54.55
2023-04-15T10:31:37.892Z,54.21
2023-04-15T10:34:08.350Z,55.09
2023-04-15T10:36:37.342Z,55.35
2023-04-15T10:39:05.109Z,54.17
2023-04-15T10:41:34.820Z,54.67
2023-04-15T10:44:03.096Z,53.87
2023-04-15T10:46:31.326Z,54.03
2023-04-15T10:48:59.133Z,53.94
2023-04-15T10:51:26.900Z,53.67
2023-04-15T10:53:54.569Z,54.26
2023-04-15T10:56:22.425Z,53.83
2023-04-15T10:58:50.087Z,54.41
2023-04-15T11:01:18.370Z,53.41
2023-04-15T11:03:46.930Z,52.52
2023-04-15T11:06:14.932Z,52.73
2023-04-15T11:08:42.683Z,52.47
2023-04-15T11:11:10.301Z,53.16
2023-04-15T11:13:38.039Z,54.37
2023-04-15T11:16:06.603Z,53.62
2023-04-15T11:18:34.463Z,54.03
2023-04-15T11:21:03.908Z,53.17
2023-04-15T11:23:31.822Z,53.33
2023-04-15T11:26:00.218Z,51.06
2023-04-15T11:28:28.482Z,52.38
2023-04-15T11:30:56.345Z,52.64
2023-04-15T11:33:24.420Z,52.05
2023-04-15T11:35:52.996Z,52.84
2023-04-15T11:38:20.659Z,51.64
2023-04-15T11:40:48.425Z,51.43
2023-04-15T11:43:16.394Z,51.18
2023-04-15T11:45:44.203Z,50.63
2023-04-15T11:48:12.125Z,48.46
2023-04-15T11:50:42.863Z,49.25
2023-04-15T11:53:10.625Z,48.20
2023-04-15T11:55:38.326Z,48.07
2023-04-15T11:58:06.768Z,47.00
2023-04-15T12:00:35.047Z,48.94
2023-04-15T12:03:02.953Z,49.18
2023-04-15T12:05:30.775Z,48.68
2023-04-15T12:07:59.054Z,48.51
2023-04-15T12:10:26.722Z,47.49
2023-04-15T12:12:54.476Z,48.27
2023-04-15T12:15:22.445Z,47.07
2023-04-15T12:17:51.434Z,46.84
2023-04-15T12:20:20.021Z,47.72
2023-04-15T12:22:47.822Z,47.31
2023-04-15T12:25:16.366Z,47.82
2023-04-15T12:27:44.133Z,47.72
2023-04-15T12:30:12.016Z,48.15
2023-04-15T12:32:42.105Z,48.86
2023-04-15T12:35:11.318Z,49.12
2023-04-15T12:37:39.194Z,49.14
2023-04-15T12:40:07.272Z,49.14
2023-04-15T12:42:35.726Z,48.57
2023-04-15T12:45:03.400Z,48.66
2023-04-15T12:47:31.595Z,48.72
2023-04-15T12:49:59.442Z,47.96
2023-04-15T12:52:27.309Z,47.69
2023-04-15T12:54:55.072Z,46.72
2023-04-15T12:57:22.854Z,47.21
2023-04-15T12:59:50.600Z,46.89
2023-04-15T13:02:19.018Z,46.48
2023-04-15T13:04:46.889Z,45.58
2023-04-15T13:07:15.965Z,46.30
2023-04-15T13:09:44.323Z,45.37
2023-04-15T13:12:14.063Z,45.58
2023-04-15T13:14:42.306Z,45.52
2023-04-15T13:17:11.712Z,45.48
2023-04-15T13:19:39.404Z,46.05
2023-04-15T13:22:08.671Z,45.43
2023-04-15T13:24:37.358Z,46.28
2023-04-15T13:27:05.325Z,45.45
2023-04-15T13:29:33.090Z,45.37
2023-04-15T13:32:01.746Z,44.56
2023-04-15T13:34:30.052Z,44.70
2023-04-15T13:36:57.922Z,45.54
2023-04-15T13:39:25.789Z,45.24
2023-04-15T13:41:53.572Z,44.89
2023-04-15T13:44:22.282Z,45.33
2023-04-15T13:46:50.155Z,45.51
2023-04-15T13:49:18.068Z,43.92
2023-04-15T13:51:45.944Z,45.26
2023-04-15T13:54:13.702Z,44.89
2023-04-15T13:56:41.473Z,44.81
2023-04-15T13:59:09.244Z,44.32
2023-04-15T14:01:37.018Z,44.75
2023-04-15T14:04:05.168Z,44.67
2023-04-15T14:06:33.335Z,43.31
2023-04-15T14:09:01.214Z,44.02
2023-04-15T14:11:30.199Z,44.65
2023-04-15T14:13:57.989Z,44.64
2023-04-15T14:16:26.161Z,44.74
2023-04-15T14:18:54.002Z,44.31
2023-04-15T14:21:21.769Z,44.21
2023-04-15T14:23:49.422Z,44.24
2023-04-15T14:26:17.192Z,44.47
2023-04-15T14:28:45.363Z,43.64
2023-04-15T14:31:13.178Z,43.38
2023-04-15T14:33:40.996Z,43.70
2023-04-15T14:36:08.759Z,44.01
2023-04-15T14:38:38.843Z,44.06
2023-04-15T14:41:06.843Z,44.44
2023-04-15T14:43:34.690Z,44.30
2023-04-15T14:46:03.837Z,45.53
2023-04-15T14:48:33.439Z,45.31
2023-04-15T14:51:01.386Z,45.56
2023-04-15T14:53:29.662Z,45.38
2023-04-15T14:55:57.959Z,44.83
2023-04-15T14:58:26.070Z,44.70
2023-04-15T15:00:53.790Z,45.01
2023-04-15T15:03:21.903Z,44.98
2023-04-15T15:05:49.948Z,44.04
2023-04-15T15:08:17.789Z,43.86
2023-04-15T15:10:49.116Z,44.99
2023-04-15T15:13:17.412Z,43.98
2023-04-15T15:15:45.298Z,44.06
2023-04-15T15:18:13.233Z,43.65
2023-04-15T15:20:41.112Z,44.13
2023-04-15T15:23:08.872Z,44.64
2023-04-15T15:25:36.539Z,44.26
2023-04-15T15:28:04.412Z,44.82
2023-04-15T15:30:32.239Z,45.28
2023-04-15T15:33:00.031Z,44.82
2023-04-15T15:35:28.122Z,45.01
2023-04-15T15:37:55.885Z,44.87
2023-04-15T15:40:23.735Z,45.04
2023-04-15T15:42:51.505Z,44.53
2023-04-15T15:45:19.372Z,44.83
2023-04-15T15:47:47.176Z,44.30
2023-04-15T15:50:15.008Z,45.06
2023-04-15T15:52:42.968Z,44.20
2023-04-15T15:55:10.735Z,44.41
2023-04-15T15:57:38.593Z,44.76
2023-04-15T16:03:04.244Z,44.22
2023-04-15T16:05:24.841Z,45.40
2023-04-15T16:07:52.750Z,45.03
2023-04-15T16:10:20.572Z,44.64
2023-04-15T16:12:48.320Z,44.92
2023-04-15T16:15:16.198Z,44.26
2023-04-15T16:17:43.885Z,44.45
2023-04-15T16:20:11.618Z,44.50
2023-04-15T16:22:39.387Z,44.42
2023-04-15T16:25:07.147Z,45.50
2023-04-15T16:27:36.548Z,45.25
2023-04-15T16:30:14.654Z,45.48
2023-04-15T16:32:42.326Z,45.45
2023-04-15T16:35:10.183Z,45.13
2023-04-15T16:37:37.945Z,45.71
2023-04-15T16:40:05.709Z,45.20
2023-04-15T16:42:33.576Z,44.93
2023-04-15T16:45:01.728Z,44.08
2023-04-15T16:47:33.447Z,43.01
2023-04-15T16:50:04.048Z,42.59
2023-04-15T16:52:33.137Z,42.66
2023-04-15T16:55:00.905Z,42.13
2023-04-15T16:58:03.016Z,41.94
2023-04-15T17:00:32.214Z,42.49
2023-04-15T17:03:00.370Z,42.83
2023-04-15T17:05:28.315Z,43.51
2023-04-15T17:07:56.374Z,43.82
2023-04-15T17:10:24.357Z,44.04
2023-04-15T17:12:52.499Z,44.45
2023-04-15T17:15:20.485Z,45.23
2023-04-15T17:17:48.272Z,45.24
2023-04-15T17:20:19.112Z,45.61
2023-04-15T17:22:46.953Z,46.13
2023-04-15T17:25:15.019Z,46.42
2023-04-15T17:27:42.693Z,46.61
2023-04-15T17:30:10.961Z,47.17
2023-04-15T17:32:39.788Z,47.41
2023-04-15T17:35:08.033Z,47.62
2023-04-15T17:37:36.303Z,47.67
2023-04-15T17:40:05.349Z,47.92
2023-04-15T17:42:35.007Z,48.25
2023-04-15T17:45:02.667Z,48.42
2023-04-15T17:47:30.337Z,48.69
2023-04-15T17:49:58.101Z,48.84
2023-04-15T17:52:26.167Z,49.00
2023-04-15T17:54:53.936Z,49.35
2023-04-15T17:57:21.693Z,49.50
2023-04-15T17:59:49.459Z,49.85
2023-04-15T18:02:17.415Z,50.09
2023-04-15T18:04:45.522Z,50.19
2023-04-15T18:07:13.464Z,50.50
2023-04-15T18:09:41.846Z,50.50
2023-04-15T18:12:09.609Z,50.66
2023-04-15T18:14:37.378Z,50.78
2023-04-15T18:17:05.167Z,50.65
2023-04-15T18:19:33.116Z,50.75
2023-04-15T18:22:01.022Z,50.97
2023-04-15T18:24:28.736Z,51.13
2023-04-15T18:26:56.728Z,51.07
2023-04-15T18:29:25.497Z,51.21
2023-04-15T18:31:53.611Z,51.32
2023-04-15T18:34:21.434Z,51.47
2023-04-15T18:36:49.096Z,51.65
2023-04-15T18:39:17.167Z,51.75
2023-04-15T18:41:44.831Z,51.99
2023-04-15T18:44:12.490Z,52.04
2023-04-15T18:46:40.216Z,52.26
2023-04-15T18:49:08.237Z,52.32
2023-04-15T18:51:36.091Z,52.46
2023-04-15T18:54:03.752Z,52.61
2023-04-15T18:56:31.619Z,52.97
2023-04-15T18:59:10.024Z,53.08
2023-04-15T19:01:46.943Z,53.41
2023-04-15T19:04:14.697Z,53.35
2023-04-15T19:06:42.440Z,53.32
2023-04-15T19:09:10.209Z,54.03
2023-04-15T19:11:38.170Z,53.65
2023-04-15T19:14:06.856Z,53.75
2023-04-15T19:16:34.586Z,53.94
2023-04-15T19:19:02.459Z,53.96
2023-04-15T19:21:30.872Z,54.14
2023-04-15T19:23:58.529Z,54.32
2023-04-15T19:26:26.395Z,54.37
2023-04-15T19:28:54.162Z,54.31
2023-04-15T19:31:21.966Z,54.53
2023-04-15T19:33:49.785Z,54.71
2023-04-15T19:36:18.475Z,55.04
2023-04-15T19:38:46.139Z,54.82
2023-04-15T19:41:13.906Z,55.06
2023-04-15T19:43:41.573Z,55.13
2023-04-15T19:46:09.475Z,55.48
2023-04-15T19:48:37.313Z,55.45
2023-04-15T19:51:05.060Z,55.42
2023-04-15T19:53:32.732Z,55.94
2023-04-15T19:56:00.599Z,56.03
2023-04-15T19:58:28.252Z,56.30
2023-04-15T20:00:56.222Z,56.32
2023-04-15T20:03:24.260Z,56.40
2023-04-15T20:05:53.079Z,56.83
2023-04-15T20:08:20.947Z,56.82
2023-04-15T20:10:48.616Z,56.71
2023-04-15T20:13:16.370Z,56.87
2023-04-15T20:15:44.984Z,57.20
2023-04-15T20:18:12.817Z,57.17
2023-04-15T20:20:40.995Z,57.18
2023-04-15T20:23:08.657Z,57.27
2023-04-15T20:25:36.832Z,57.11
2023-04-15T20:28:04.696Z,57.27
2023-04-15T20:30:32.355Z,57.33
2023-04-15T20:33:00.761Z,57.67
2023-04-15T20:35:31.101Z,57.51
2023-04-15T20:37:59.956Z,57.36
2023-04-15T20:40:27.813Z,57.26
2023-04-15T20:42:56.295Z,57.31
2023-04-15T20:45:24.056Z,57.55
2023-04-15T20:47:51.764Z,57.57
2023-04-15T20:50:19.494Z,57.64
2023-04-15T20:52:47.261Z,58.00
2023-04-15T20:55:14.913Z,58.04
2023-04-15T20:57:45.706Z,58.38
2023-04-15T21:00:18.439Z,57.97
2023-04-15T21:02:46.204Z,58.24
2023-04-15T21:05:14.062Z,58.21
2023-04-15T21:07:41.930Z,58.35
2023-04-15T21:10:09.796Z,58.51
2023-04-15T21:12:41.348Z,58.61
2023-04-15T21:15:09.029Z,59.13
2023-04-15T21:17:36.787Z,59.19
2023-04-15T21:20:04.546Z,59.46
2023-04-15T21:22:32.203Z,59.25
2023-04-15T21:25:00.092Z,59.46
2023-04-15T21:27:27.826Z,59.42
2023-04-15T21:29:55.900Z,59.30
2023-04-15T21:32:23.582Z,59.62
2023-04-15T21:34:51.432Z,59.70
2023-04-15T21:37:19.089Z,59.99
2023-04-15T21:39:46.705Z,59.85
2023-04-15T21:42:14.472Z,59.96
2023-04-15T21:44:42.489Z,60.09
2023-04-15T21:47:10.602Z,60.11
2023-04-15T21:49:38.628Z,60.16
2023-04-15T21:52:06.606Z,60.29
2023-04-15T21:54:37.037Z,60.35
2023-04-15T21:57:04.795Z,60.17
2023-04-15T21:59:32.662Z,60.23
2023-04-15T22:02:00.591Z,60.37
2023-04-15T22:04:28.517Z,60.64
2023-04-15T22:06:59.938Z,60.75
2023-04-15T22:09:27.905Z,60.81
2023-04-15T22:11:55.776Z,60.75
2023-04-15T22:14:23.541Z,60.95
2023-04-15T22:16:51.456Z,61.20
2023-04-15T22:19:19.373Z,61.35
2023-04-15T22:21:47.134Z,61.64
2023-04-15T22:24:38.302Z,61.18
2023-04-15T22:27:03.042Z,61.25
2023-04-15T22:29:30.909Z,61.45
2023-04-15T22:31:58.776Z,61.22
2023-04-15T22:34:26.640Z,61.34
2023-04-15T22:36:54.513Z,61.47
2023-04-15T22:39:22.266Z,61.52
2023-04-15T22:41:49.936Z,61.59
2023-04-15T22:44:17.798Z,61.61
2023-04-15T22:46:45.460Z,61.66
2023-04-15T22:49:13.127Z,62.03
2023-04-15T22:51:41.006Z,62.03
2023-04-15T22:54:08.751Z,62.33
2023-04-15T22:56:40.711Z,69.59
2023-04-15T22:59:08.734Z,62.61
2023-04-15T23:01:38.393Z,51.51
2023-04-15T23:04:10.973Z,50.43
2023-04-15T23:06:52.466Z,52.46
2023-04-15T23:09:20.219Z,54.09
2023-04-15T23:11:47.898Z,55.10
2023-04-15T23:14:16.157Z,56.13
2023-04-15T23:16:43.929Z,56.82
2023-04-15T23:19:11.976Z,57.52
2023-04-15T23:21:39.974Z,58.17
2023-04-15T23:24:07.735Z,58.43
2023-04-15T23:26:35.490Z,58.97
2023-04-15T23:29:03.160Z,59.34
2023-04-15T23:31:31.029Z,59.64
2023-04-15T23:33:59.194Z,59.75
2023-04-15T23:36:27.468Z,60.19
2023-04-15T23:38:55.240Z,60.34
2023-04-15T23:41:22.996Z,60.73
2023-04-15T23:43:50.762Z,61.28
2023-04-15T23:46:18.448Z,61.32
2023-04-15T23:48:47.939Z,66.52
2023-04-15T23:51:16.102Z,65.68
2023-04-15T23:53:43.771Z,54.24
2023-04-15T23:56:11.735Z,52.11
2023-04-15T23:58:39.394Z,53.74
